Polaris Voyager — C6AP4 — position and weather

sailwx.info

Track history (hours):
 
Tides and Currents Weather Stations Pressure Air Temp Water Temp Dewpoint Dewpoint Depression Visibility Wind Speed Wind Dir Waves Ship Positions

Polaris Voyager

Last reported at 2018-Jan-18 16:17 UTC. Time now 2018-Jan-19 06:02 UTC.
Position N 33°54' W 118°27'.

Length 276 m; draft 12.5 m.

Type: Ship (hazmat cat A). MMSI: 311000112.

Date/timePositionNaut miles runAvg speedWind from/ knotsBaromVisibWave heightAir tempDewpointWater temp
2018-Jan-18 16:17N 33°54' W 118°27'0 0.5
2018-Jan-18 15:59N 33°54' W 118°27'1 2.2
2018-Jan-18 15:30N 33°53' W 118°27'2 2.2
2018-Jan-18 14:25N 33°52' W 118°30'1 2.9
2018-Jan-18 14:00N 33°51' W 118°31'4 7.4
2018-Jan-18 13:31N 33°48' W 118°33'5 9.1
2018-Jan-18 13:00N 33°44' W 118°35'5 9.1
2018-Jan-18 12:30N 33°40' W 118°38'5 9.1
2018-Jan-18 12:00N 33°36' W 118°41'5 9.2
2018-Jan-18 11:29N 33°32' W 118°44'5 9.1
2018-Jan-18 10:55N 33°27' W 118°44'4 9.3
2018-Jan-18 10:30N 33°23' W 118°44'4 8.4
2018-Jan-18 10:00N 33°19' W 118°43'5 8.9
2018-Jan-18 09:29N 33°15' W 118°39'4 8.9
2018-Jan-18 09:00N 33°12' W 118°35'4 9.0
2018-Jan-18 08:30N 33°11' W 118°30'5 8.9
2018-Jan-18 07:57N 33°10' W 118°24'5 9.4
2018-Jan-18 07:28N 33°10' W 118°19'4 9.6
2018-Jan-18 07:01N 33°09' W 118°14'4 8.9
2018-Jan-18 06:30N 33°07' W 118°09'4 8.4
2018-Jan-18 06:00N 33°04' W 118°06'3 6.1
2018-Jan-18 05:30N 33°01' W 118°04'1 2.2
2018-Jan-18 05:00N 33°01' W 118°03'1 2.4
2018-Jan-18 04:30N 33°01' W 118°01'1 2.4
2018-Jan-18 04:00N 33°01' W 117°60'1 2.4
2018-Jan-18 03:31N 33°01' W 117°58'1 2.2
2018-Jan-18 03:00N 33°02' W 117°57'1 2.3
2018-Jan-18 02:31N 33°02' W 117°56'1 2.2
2018-Jan-18 01:59N 33°02' W 117°54'1 2.5
2018-Jan-18 01:31N 33°02' W 117°53'1 2.5
2018-Jan-18 01:01N 33°03' W 117°52'2 2.1
2018-Jan-18 00:01N 33°04' W 117°50'0 2.0
2018-Jan-17 23:58N 33°04' W 117°49'  
2018-Jan-12 14:57N 37°56' W 122°25'0 0.0
2018-Jan-12 14:27N 37°56' W 122°25'0 0.0
2018-Jan-12 13:57N 37°56' W 122°25'0 0.0
2018-Jan-12 13:27N 37°56' W 122°25'0 0.0
2018-Jan-12 10:09N 37°56' W 122°25'0 0.0
2018-Jan-12 09:57N 37°56' W 122°25'0 0.0
2018-Jan-12 09:27N 37°56' W 122°25'0 0.0
2018-Jan-12 08:57N 37°56' W 122°25'0 0.0
2018-Jan-12 08:27N 37°56' W 122°25'0 0.0
2018-Jan-12 07:57N 37°56' W 122°25'0 0.0
2018-Jan-12 07:27N 37°56' W 122°25'0 0.0
2018-Jan-12 06:57N 37°56' W 122°25'0 0.0
2018-Jan-12 06:27N 37°56' W 122°25'0 0.0
2018-Jan-12 05:57N 37°56' W 122°25'0 0.0
2018-Jan-12 05:27N 37°56' W 122°25'0 0.0
2018-Jan-12 04:57N 37°56' W 122°25'0 0.0
2018-Jan-12 04:27N 37°56' W 122°25'0 0.0
2018-Jan-12 03:57N 37°56' W 122°25'0 0.0
2018-Jan-12 03:27N 37°56' W 122°25'0 0.0
2018-Jan-12 02:57N 37°56' W 122°25'0 0.0
2018-Jan-12 02:21N 37°56' W 122°25'0 0.0
2018-Jan-12 01:57N 37°56' W 122°25'0 0.0
2018-Jan-12 01:27N 37°56' W 122°25'0 0.0
2018-Jan-12 00:57N 37°56' W 122°25'0 0.0
2018-Jan-12 00:27N 37°56' W 122°25'0 0.0
2018-Jan-11 23:57N 37°56' W 122°25'0 0.0
2018-Jan-11 23:27N 37°56' W 122°25'0 0.0
2018-Jan-11 22:57N 37°56' W 122°25'0 0.0
2018-Jan-11 22:27N 37°56' W 122°25'0 0.0
2018-Jan-11 21:57N 37°56' W 122°25'0 0.0
2018-Jan-11 21:27N 37°56' W 122°25'0 0.0
2018-Jan-11 20:57N 37°56' W 122°25'0 0.0
2018-Jan-11 20:27N 37°56' W 122°25'0 0.0
2018-Jan-11 19:57N 37°56' W 122°25'0 0.0
2018-Jan-11 19:27N 37°56' W 122°25'0 0.0
2018-Jan-11 19:00N 37°56' W 122°25'0 0.0
2018-Jan-11 18:30N 37°56' W 122°25'1 2.9
2018-Jan-11 18:00N 37°54' W 122°25'3 7.0
2018-Jan-11 17:30N 37°51' W 122°25'4 7.5
2018-Jan-11 17:00N 37°49' W 122°29'4 8.2
2018-Jan-11 16:30N 37°47' W 122°34'511.1
2018-Jan-11 16:00N 37°45' W 122°40'4 7.7
2018-Jan-11 15:30N 37°42' W 122°43'2 4.3
2018-Jan-11 15:00N 37°42' W 122°46'3 5.4
2018-Jan-11 14:30N 37°40' W 122°49'3 6.0
2018-Jan-11 14:00N 37°38' W 122°52'2 3.0
2018-Jan-11 13:30N 37°38' W 122°54'3 5.7
2018-Jan-11 13:00N 37°36' W 122°57'4 8.8
2018-Jan-11 12:30N 37°33' W 123°01'5 9.0
2018-Jan-11 12:00N 37°30' W 123°05'4 8.0
2018-Jan-11 11:30N 37°30' W 123°10'4 8.9
2018-Jan-11 11:00N 37°31' W 123°16'4 8.9
2018-Jan-11 10:30N 37°33' W 123°21'5 8.9
2018-Jan-11 10:00N 37°34' W 123°27'5 8.9
2018-Jan-11 09:26N 37°35' W 123°33'6 9.0
2018-Jan-11 08:48N 37°37' W 123°40'3 8.9
2018-Jan-11 08:30N 37°38' W 123°43'5 9.0
2018-Jan-11 08:00N 37°39' W 123°48'6 9.4
2018-Jan-11 07:23N 37°40' W 123°55'5 9.3
2018-Jan-11 06:48N 37°42' W 124°02'3 9.1
2018-Jan-11 06:30N 37°43' W 124°05'6 9.1
2018-Jan-11 05:52N 37°44' W 124°12'4 9.3
2018-Jan-11 05:28N 37°45' W 124°17'8 9.0
2018-Jan-11 04:36N 37°48' W 124°26'1 8.4
2018-Jan-11 04:30N 37°48' W 124°27'112 4.9
2018-Jan-10 05:37N 36°10' W 123°19'1 7.3
2018-Jan-10 05:30N 36°09' W 123°19'18 7.0
2018-Jan-10 03:00N 35°52' W 123°12'11 7.0
2018-Jan-10 01:27N 35°42' W 123°09'4 7.1
2018-Jan-10 00:53N 35°38' W 123°08'3 7.0
2018-Jan-10 00:30N 35°35' W 123°07'5 6.7
2018-Jan-09 23:43N 35°30' W 123°05'97 4.7
2018-Jan-09 03:08N 34°14' W 121°52'1 6.4
2018-Jan-09 03:00N 34°14' W 121°52'3 6.4
2018-Jan-09 02:30N 34°11' W 121°49'3 6.4
2018-Jan-09 02:00N 34°09' W 121°47'3 6.1
2018-Jan-09 01:29N 34°06' W 121°45'3 6.1
2018-Jan-09 01:00N 34°04' W 121°42'3 6.1
2018-Jan-09 00:30N 34°01' W 121°40'4 8.1
2018-Jan-09 00:00N 33°58' W 121°37'5 9.0
2018-Jan-08 23:30N 33°54' W 121°34'510.1
2018-Jan-08 23:00N 33°51' W 121°29'713.6
2018-Jan-08 22:30N 33°50' W 121°21'713.6
2018-Jan-08 22:00N 33°48' W 121°13'714.0
2018-Jan-08 21:31N 33°47' W 121°05'713.9
2018-Jan-08 21:00N 33°45' W 120°57'714.1
2018-Jan-08 20:30N 33°43' W 120°49'714.0
2018-Jan-08 20:00N 33°42' W 120°41'714.2
2018-Jan-08 19:30N 33°40' W 120°32'714.1
2018-Jan-08 19:00N 33°38' W 120°24'714.2
2018-Jan-08 18:30N 33°36' W 120°16'713.7
2018-Jan-08 18:00N 33°36' W 120°08'713.7
2018-Jan-08 17:30N 33°37' W 119°60'713.9
2018-Jan-08 16:59N 33°39' W 119°51'713.9
2018-Jan-08 16:31N 33°41' W 119°43'  
Track history (hours):
 
Tides and Currents Weather Stations Pressure Air Temp Water Temp Dewpoint Dewpoint Depression Visibility Wind Speed Wind Dir Waves Ship Positions

Polaris Voyager

Last reported at 2018-Jan-18 16:17 UTC. Time now 2018-Jan-19 06:02 UTC.
Position N 33°54' W 118°27'.

Length 276 m; draft 12.5 m.

Type: Ship (hazmat cat A). MMSI: 311000112.

Date/timePositionNaut miles runAvg speedWind from/ knotsBaromVisibWave heightAir tempDewpointWater temp
2018-Jan-18 16:17N 33°54' W 118°27'0 0.5
2018-Jan-18 15:59N 33°54' W 118°27'1 2.2
2018-Jan-18 15:30N 33°53' W 118°27'2 2.2
2018-Jan-18 14:25N 33°52' W 118°30'1 2.9
2018-Jan-18 14:00N 33°51' W 118°31'4 7.4
2018-Jan-18 13:31N 33°48' W 118°33'5 9.1
2018-Jan-18 13:00N 33°44' W 118°35'5 9.1
2018-Jan-18 12:30N 33°40' W 118°38'5 9.1
2018-Jan-18 12:00N 33°36' W 118°41'5 9.2
2018-Jan-18 11:29N 33°32' W 118°44'5 9.1
2018-Jan-18 10:55N 33°27' W 118°44'4 9.3
2018-Jan-18 10:30N 33°23' W 118°44'4 8.4
2018-Jan-18 10:00N 33°19' W 118°43'5 8.9
2018-Jan-18 09:29N 33°15' W 118°39'4 8.9
2018-Jan-18 09:00N 33°12' W 118°35'4 9.0
2018-Jan-18 08:30N 33°11' W 118°30'5 8.9
2018-Jan-18 07:57N 33°10' W 118°24'5 9.4
2018-Jan-18 07:28N 33°10' W 118°19'4 9.6
2018-Jan-18 07:01N 33°09' W 118°14'4 8.9
2018-Jan-18 06:30N 33°07' W 118°09'4 8.4
2018-Jan-18 06:00N 33°04' W 118°06'3 6.1
2018-Jan-18 05:30N 33°01' W 118°04'1 2.2
2018-Jan-18 05:00N 33°01' W 118°03'1 2.4
2018-Jan-18 04:30N 33°01' W 118°01'1 2.4
2018-Jan-18 04:00N 33°01' W 117°60'1 2.4
2018-Jan-18 03:31N 33°01' W 117°58'1 2.2
2018-Jan-18 03:00N 33°02' W 117°57'1 2.3
2018-Jan-18 02:31N 33°02' W 117°56'1 2.2
2018-Jan-18 01:59N 33°02' W 117°54'1 2.5
2018-Jan-18 01:31N 33°02' W 117°53'1 2.5
2018-Jan-18 01:01N 33°03' W 117°52'2 2.1
2018-Jan-18 00:01N 33°04' W 117°50'0 2.0
2018-Jan-17 23:58N 33°04' W 117°49'  
2018-Jan-12 14:57N 37°56' W 122°25'0 0.0
2018-Jan-12 14:27N 37°56' W 122°25'0 0.0
2018-Jan-12 13:57N 37°56' W 122°25'0 0.0
2018-Jan-12 13:27N 37°56' W 122°25'0 0.0
2018-Jan-12 10:09N 37°56' W 122°25'0 0.0
2018-Jan-12 09:57N 37°56' W 122°25'0 0.0
2018-Jan-12 09:27N 37°56' W 122°25'0 0.0
2018-Jan-12 08:57N 37°56' W 122°25'0 0.0
2018-Jan-12 08:27N 37°56' W 122°25'0 0.0
2018-Jan-12 07:57N 37°56' W 122°25'0 0.0
2018-Jan-12 07:27N 37°56' W 122°25'0 0.0
2018-Jan-12 06:57N 37°56' W 122°25'0 0.0
2018-Jan-12 06:27N 37°56' W 122°25'0 0.0
2018-Jan-12 05:57N 37°56' W 122°25'0 0.0
2018-Jan-12 05:27N 37°56' W 122°25'0 0.0
2018-Jan-12 04:57N 37°56' W 122°25'0 0.0
2018-Jan-12 04:27N 37°56' W 122°25'0 0.0
2018-Jan-12 03:57N 37°56' W 122°25'0 0.0
2018-Jan-12 03:27N 37°56' W 122°25'0 0.0
2018-Jan-12 02:57N 37°56' W 122°25'0 0.0
2018-Jan-12 02:21N 37°56' W 122°25'0 0.0
2018-Jan-12 01:57N 37°56' W 122°25'0 0.0
2018-Jan-12 01:27N 37°56' W 122°25'0 0.0
2018-Jan-12 00:57N 37°56' W 122°25'0 0.0
2018-Jan-12 00:27N 37°56' W 122°25'0 0.0
2018-Jan-11 23:57N 37°56' W 122°25'0 0.0
2018-Jan-11 23:27N 37°56' W 122°25'0 0.0
2018-Jan-11 22:57N 37°56' W 122°25'0 0.0
2018-Jan-11 22:27N 37°56' W 122°25'0 0.0
2018-Jan-11 21:57N 37°56' W 122°25'0 0.0
2018-Jan-11 21:27N 37°56' W 122°25'0 0.0
2018-Jan-11 20:57N 37°56' W 122°25'0 0.0
2018-Jan-11 20:27N 37°56' W 122°25'0 0.0
2018-Jan-11 19:57N 37°56' W 122°25'0 0.0
2018-Jan-11 19:27N 37°56' W 122°25'0 0.0
2018-Jan-11 19:00N 37°56' W 122°25'0 0.0
2018-Jan-11 18:30N 37°56' W 122°25'1 2.9
2018-Jan-11 18:00N 37°54' W 122°25'3 7.0
2018-Jan-11 17:30N 37°51' W 122°25'4 7.5
2018-Jan-11 17:00N 37°49' W 122°29'4 8.2
2018-Jan-11 16:30N 37°47' W 122°34'511.1
2018-Jan-11 16:00N 37°45' W 122°40'4 7.7
2018-Jan-11 15:30N 37°42' W 122°43'2 4.3
2018-Jan-11 15:00N 37°42' W 122°46'3 5.4
2018-Jan-11 14:30N 37°40' W 122°49'3 6.0
2018-Jan-11 14:00N 37°38' W 122°52'2 3.0
2018-Jan-11 13:30N 37°38' W 122°54'3 5.7
2018-Jan-11 13:00N 37°36' W 122°57'4 8.8
2018-Jan-11 12:30N 37°33' W 123°01'5 9.0
2018-Jan-11 12:00N 37°30' W 123°05'4 8.0
2018-Jan-11 11:30N 37°30' W 123°10'4 8.9
2018-Jan-11 11:00N 37°31' W 123°16'4 8.9
2018-Jan-11 10:30N 37°33' W 123°21'5 8.9
2018-Jan-11 10:00N 37°34' W 123°27'5 8.9
2018-Jan-11 09:26N 37°35' W 123°33'6 9.0
2018-Jan-11 08:48N 37°37' W 123°40'3 8.9
2018-Jan-11 08:30N 37°38' W 123°43'5 9.0
2018-Jan-11 08:00N 37°39' W 123°48'6 9.4
2018-Jan-11 07:23N 37°40' W 123°55'5 9.3
2018-Jan-11 06:48N 37°42' W 124°02'3 9.1
2018-Jan-11 06:30N 37°43' W 124°05'6 9.1
2018-Jan-11 05:52N 37°44' W 124°12'4 9.3
2018-Jan-11 05:28N 37°45' W 124°17'8 9.0
2018-Jan-11 04:36N 37°48' W 124°26'1 8.4
2018-Jan-11 04:30N 37°48' W 124°27'112 4.9
2018-Jan-10 05:37N 36°10' W 123°19'1 7.3
2018-Jan-10 05:30N 36°09' W 123°19'18 7.0
2018-Jan-10 03:00N 35°52' W 123°12'11 7.0
2018-Jan-10 01:27N 35°42' W 123°09'4 7.1
2018-Jan-10 00:53N 35°38' W 123°08'3 7.0
2018-Jan-10 00:30N 35°35' W 123°07'5 6.7
2018-Jan-09 23:43N 35°30' W 123°05'97 4.7
2018-Jan-09 03:08N 34°14' W 121°52'1 6.4
2018-Jan-09 03:00N 34°14' W 121°52'3 6.4
2018-Jan-09 02:30N 34°11' W 121°49'3 6.4
2018-Jan-09 02:00N 34°09' W 121°47'3 6.1
2018-Jan-09 01:29N 34°06' W 121°45'3 6.1
2018-Jan-09 01:00N 34°04' W 121°42'3 6.1
2018-Jan-09 00:30N 34°01' W 121°40'4 8.1
2018-Jan-09 00:00N 33°58' W 121°37'5 9.0
2018-Jan-08 23:30N 33°54' W 121°34'510.1
2018-Jan-08 23:00N 33°51' W 121°29'713.6
2018-Jan-08 22:30N 33°50' W 121°21'713.6
2018-Jan-08 22:00N 33°48' W 121°13'714.0
2018-Jan-08 21:31N 33°47' W 121°05'713.9
2018-Jan-08 21:00N 33°45' W 120°57'714.1
2018-Jan-08 20:30N 33°43' W 120°49'714.0
2018-Jan-08 20:00N 33°42' W 120°41'714.2
2018-Jan-08 19:30N 33°40' W 120°32'714.1
2018-Jan-08 19:00N 33°38' W 120°24'714.2
2018-Jan-08 18:30N 33°36' W 120°16'713.7
2018-Jan-08 18:00N 33°36' W 120°08'713.7
2018-Jan-08 17:30N 33°37' W 119°60'713.9
2018-Jan-08 16:59N 33°39' W 119°51'713.9
2018-Jan-08 16:31N 33°41' W 119°43'  

Dump ship's entire track history